createdAt,value
2019-01-14T00:00:35.123Z,100627.86
2019-01-14T00:03:04.850Z,100625.80
2019-01-14T00:05:34.141Z,100619.59
2019-01-14T00:08:06.239Z,100619.59
2019-01-14T00:10:34.458Z,100644.03
2019-01-14T00:13:03.617Z,100639.68
2019-01-14T00:15:32.805Z,100647.30
2019-01-14T00:18:02.067Z,100651.02
2019-01-14T00:20:31.247Z,100652.83
2019-01-14T00:23:00.434Z,100645.38
2019-01-14T00:25:29.623Z,100649.81
2019-01-14T00:27:58.799Z,100649.81
2019-01-14T00:30:27.983Z,100657.09
2019-01-14T00:32:57.191Z,100655.41
2019-01-14T00:35:26.379Z,100659.95
2019-01-14T00:37:55.549Z,100659.95
2019-01-14T00:40:24.769Z,100680.92
2019-01-14T00:42:54.027Z,100669.11
2019-01-14T00:45:23.323Z,100669.11
2019-01-14T00:47:52.526Z,100674.98
2019-01-14T00:50:21.726Z,100674.98
2019-01-14T00:52:50.908Z,100668.38
2019-01-14T00:55:20.169Z,100668.38
2019-01-14T00:57:49.349Z,100695.73
2019-01-14T01:00:22.907Z,100690.39
2019-01-14T01:02:52.145Z,100698.94
2019-01-14T01:05:21.323Z,100698.94
2019-01-14T01:07:50.617Z,100704.09
2019-01-14T01:10:19.953Z,100721.95
2019-01-14T01:12:49.386Z,100721.95
2019-01-14T01:15:18.868Z,100714.69
2019-01-14T01:17:48.052Z,100736.62
2019-01-14T01:20:19.042Z,100729.95
2019-01-14T01:22:48.234Z,100725.95
2019-01-14T01:25:17.851Z,100721.84
2019-01-14T01:27:47.766Z,100724.13
2019-01-14T01:30:17.808Z,100722.09
2019-01-14T01:32:46.989Z,100731.70
2019-01-14T01:35:16.508Z,100740.30
2019-01-14T01:37:45.995Z,100748.09
2019-01-14T01:40:17.514Z,100746.23
2019-01-14T01:42:46.919Z,100743.15
2019-01-14T01:45:16.864Z,100750.08
2019-01-14T01:47:46.105Z,100750.08
2019-01-14T01:50:16.811Z,100755.47
2019-01-14T01:52:46.080Z,100747.67
2019-01-14T01:55:15.601Z,100749.39
2019-01-14T01:57:44.770Z,100743.41
2019-01-14T02:00:16.477Z,100755.26
2019-01-14T02:02:45.654Z,100765.77
2019-01-14T02:05:16.946Z,100769.81
2019-01-14T02:07:46.136Z,100776.64
2019-01-14T02:10:20.458Z,100776.64
2019-01-14T02:12:49.799Z,100785.33
2019-01-14T02:15:20.029Z,100782.81
2019-01-14T02:17:50.966Z,100785.19
2019-01-14T02:20:20.580Z,100804.96
2019-01-14T02:22:49.784Z,100790.29
2019-01-14T02:25:19.115Z,100800.02
2019-01-14T02:27:48.255Z,100807.69
2019-01-14T02:30:19.445Z,100803.21
2019-01-14T02:32:48.701Z,100818.36
2019-01-14T02:35:18.319Z,100806.35
2019-01-14T02:37:47.532Z,100814.00
2019-01-14T02:40:21.168Z,100821.89
2019-01-14T02:42:50.336Z,100821.89
2019-01-14T02:45:19.741Z,100819.22
2019-01-14T02:47:49.191Z,100802.14
2019-01-14T02:50:18.379Z,100826.90
2019-01-14T02:52:47.581Z,100827.33
2019-01-14T02:55:16.770Z,100807.80
2019-01-14T02:57:46.046Z,100807.80
2019-01-14T03:00:26.073Z,100823.32
2019-01-14T03:02:55.250Z,100823.70
2019-01-14T03:05:24.836Z,100822.36
2019-01-14T03:07:54.046Z,100825.14
2019-01-14T03:10:23.292Z,100818.08
2019-01-14T03:12:52.482Z,100809.61
2019-01-14T03:15:21.709Z,100828.08
2019-01-14T03:17:50.960Z,100819.16
2019-01-14T03:20:20.134Z,100844.41
2019-01-14T03:22:49.578Z,100844.41
2019-01-14T03:25:18.784Z,100836.61
2019-01-14T03:27:47.966Z,100844.17
2019-01-14T03:30:18.400Z,100844.75
2019-01-14T03:32:47.742Z,100841.55
2019-01-14T03:35:17.007Z,100851.06
2019-01-14T03:37:46.190Z,100860.14
2019-01-14T03:40:16.402Z,100868.53
2019-01-14T03:42:45.698Z,100850.55
2019-01-14T03:45:15.492Z,100865.97
2019-01-14T03:47:44.747Z,100865.97
2019-01-14T03:50:20.384Z,100867.25
2019-01-14T03:52:49.620Z,100866.33
2019-01-14T03:55:18.905Z,100869.06
2019-01-14T03:57:48.424Z,100875.09
2019-01-14T04:00:18.138Z,100870.39
2019-01-14T04:02:47.339Z,100872.59
2019-01-14T04:05:16.612Z,100851.57
2019-01-14T04:07:45.884Z,100859.77
2019-01-14T04:10:16.793Z,100859.77
2019-01-14T04:12:46.000Z,100876.59
2019-01-14T04:15:17.603Z,100876.59
2019-01-14T04:17:46.845Z,100872.33
2019-01-14T04:20:17.705Z,100883.00
2019-01-14T04:22:47.130Z,100892.55
2019-01-14T04:25:16.735Z,100892.55
2019-01-14T04:27:45.920Z,100905.13
2019-01-14T04:30:20.383Z,100908.30
2019-01-14T04:32:50.140Z,100915.45
2019-01-14T04:35:20.843Z,100913.95
2019-01-14T04:37:50.160Z,100923.76
2019-01-14T04:40:19.383Z,100924.41
2019-01-14T04:42:48.548Z,100925.44
2019-01-14T04:45:17.904Z,100918.73
2019-01-14T04:47:47.085Z,100938.18
2019-01-14T04:50:18.705Z,100911.28
2019-01-14T04:52:47.884Z,100932.13
2019-01-14T04:55:17.217Z,100932.61
2019-01-14T04:57:46.401Z,100929.09
2019-01-14T05:00:21.282Z,100936.13
2019-01-14T05:02:50.465Z,100934.28
2019-01-14T05:05:20.075Z,100932.44
2019-01-14T05:07:49.280Z,100938.94
2019-01-14T05:10:20.089Z,100934.60
2019-01-14T05:12:49.271Z,100948.36
2019-01-14T05:15:18.455Z,100945.92
2019-01-14T05:17:47.624Z,100947.36
2019-01-14T05:20:19.681Z,100951.18
2019-01-14T05:22:48.874Z,100953.79
2019-01-14T05:25:18.243Z,100958.80
2019-01-14T05:27:47.591Z,100964.41
2019-01-14T05:30:18.530Z,100971.94
2019-01-14T05:32:48.040Z,100966.61
2019-01-14T05:35:17.382Z,100975.17
2019-01-14T05:37:46.625Z,100982.73
2019-01-14T05:40:20.978Z,100989.45
2019-01-14T05:42:50.194Z,100992.94
2019-01-14T05:45:19.436Z,100981.27
2019-01-14T05:47:48.614Z,100984.74
2019-01-14T05:50:18.157Z,101003.73
2019-01-14T05:52:47.619Z,101002.49
2019-01-14T05:55:17.838Z,101017.77
2019-01-14T05:57:47.110Z,101013.38
2019-01-14T06:00:25.829Z,101011.72
2019-01-14T06:02:55.094Z,101010.88
2019-01-14T06:05:24.275Z,101018.20
2019-01-14T06:07:53.440Z,101014.67
2019-01-14T06:10:22.960Z,101017.99
2019-01-14T06:12:52.158Z,101026.87
2019-01-14T06:15:21.866Z,101019.50
2019-01-14T06:17:51.051Z,101031.95
2019-01-14T06:20:22.069Z,101031.22
2019-01-14T06:22:51.234Z,101033.58
2019-01-14T06:25:20.472Z,101037.63
2019-01-14T06:27:49.659Z,101038.34
2019-01-14T06:30:21.527Z,101039.12
2019-01-14T06:32:50.859Z,101047.63
2019-01-14T06:35:20.273Z,101045.99
2019-01-14T06:37:52.575Z,101049.98
2019-01-14T06:40:21.391Z,101057.05
2019-01-14T06:42:50.911Z,101054.37
2019-01-14T06:45:20.231Z,101062.89
2019-01-14T06:47:50.382Z,101068.89
2019-01-14T06:50:20.402Z,101084.33
2019-01-14T06:52:49.753Z,101082.78
2019-01-14T06:55:19.386Z,101084.33
2019-01-14T06:57:48.729Z,101091.13
2019-01-14T07:00:20.821Z,101101.65
2019-01-14T07:02:50.193Z,101115.79
2019-01-14T07:05:19.727Z,101125.30
2019-01-14T07:07:49.245Z,101136.94
2019-01-14T07:10:23.988Z,101141.36
2019-01-14T07:12:53.259Z,101141.45
2019-01-14T07:15:22.703Z,101145.44
2019-01-14T07:17:52.854Z,101147.45
2019-01-14T07:20:22.259Z,101162.30
2019-01-14T07:22:51.513Z,101151.33
2019-01-14T07:25:20.791Z,101163.79
2019-01-14T07:27:49.958Z,101176.13
2019-01-14T07:30:21.478Z,101178.86
2019-01-14T07:32:50.676Z,101177.53
2019-01-14T07:35:20.062Z,101185.87
2019-01-14T07:37:49.316Z,101200.67
2019-01-14T07:40:19.808Z,101211.01
2019-01-14T07:42:48.979Z,101210.58
2019-01-14T07:45:19.566Z,101217.27
2019-01-14T07:47:48.771Z,101223.10
2019-01-14T07:50:18.975Z,101217.57
2019-01-14T07:52:48.804Z,101223.94
2019-01-14T07:55:18.071Z,101232.14
2019-01-14T07:57:47.242Z,101238.55
2019-01-14T08:00:19.173Z,101241.20
2019-01-14T08:02:48.450Z,101250.19
2019-01-14T08:05:17.636Z,101252.53
2019-01-14T08:07:47.058Z,101263.97
2019-01-14T08:10:16.261Z,101268.28
2019-01-14T08:12:45.496Z,101269.05
2019-01-14T08:15:17.082Z,101271.31
2019-01-14T08:17:46.346Z,101280.66
2019-01-14T08:20:15.794Z,101287.61
2019-01-14T08:22:45.045Z,101294.87
2019-01-14T08:25:15.204Z,101304.37
2019-01-14T08:27:44.458Z,101306.41
2019-01-14T08:30:16.149Z,101309.65
2019-01-14T08:32:45.509Z,101310.05
2019-01-14T08:35:14.859Z,101318.06
2019-01-14T08:37:44.298Z,101320.59
2019-01-14T08:40:15.828Z,101328.41
2019-01-14T08:42:44.996Z,101329.13
2019-01-14T08:45:14.646Z,101338.16
2019-01-14T08:47:43.997Z,101342.77
2019-01-14T08:50:18.261Z,101353.28
2019-01-14T08:52:47.461Z,101355.17
2019-01-14T08:55:16.670Z,101354.97
2019-01-14T08:57:45.839Z,101356.69
2019-01-14T09:00:19.837Z,101360.69
2019-01-14T09:02:49.085Z,101365.78
2019-01-14T09:05:18.510Z,101364.12
2019-01-14T09:07:48.014Z,101367.38
2019-01-14T09:10:20.287Z,101361.72
2019-01-14T09:12:49.480Z,101363.22
2019-01-14T09:15:19.463Z,101365.51
2019-01-14T09:17:48.939Z,101375.49
2019-01-14T09:20:20.256Z,101376.36
2019-01-14T09:22:49.764Z,101376.36
2019-01-14T09:25:19.042Z,101377.75
2019-01-14T09:27:48.215Z,101376.92
2019-01-14T09:30:19.767Z,101391.64
2019-01-14T09:32:49.047Z,101390.25
2019-01-14T09:35:18.482Z,101391.09
2019-01-14T09:37:47.659Z,101391.09
2019-01-14T09:40:22.033Z,101407.52
2019-01-14T09:42:52.177Z,101406.09
2019-01-14T09:45:21.496Z,101397.27
2019-01-14T09:47:50.691Z,101406.44
2019-01-14T09:50:19.862Z,101419.13
2019-01-14T09:52:49.044Z,101414.95
2019-01-14T09:55:19.271Z,101418.20
2019-01-14T09:57:48.436Z,101419.84
2019-01-14T10:00:17.708Z,101429.89
2019-01-14T10:02:47.139Z,101435.20
2019-01-14T10:05:17.754Z,101433.20
2019-01-14T10:07:47.088Z,101441.59
2019-01-14T10:10:17.848Z,101446.97
2019-01-14T10:12:47.253Z,101449.19
2019-01-14T10:15:18.830Z,101452.42
2019-01-14T10:17:49.707Z,101466.39
2019-01-14T10:20:18.908Z,101464.23
2019-01-14T10:22:48.099Z,101483.50
2019-01-14T10:25:17.381Z,101482.59
2019-01-14T10:27:46.560Z,101497.91
2019-01-14T10:30:18.074Z,101499.68
2019-01-14T10:32:47.452Z,101495.06
2019-01-14T10:35:16.673Z,101501.59
2019-01-14T10:37:45.905Z,101500.64
2019-01-14T10:40:18.175Z,101504.82
2019-01-14T10:42:47.338Z,101493.92
2019-01-14T10:45:18.958Z,101506.27
2019-01-14T10:47:48.284Z,101500.75
2019-01-14T10:50:17.521Z,101491.59
2019-01-14T10:52:46.987Z,101489.36
2019-01-14T10:55:16.367Z,101495.80
2019-01-14T10:57:45.714Z,101497.45
2019-01-14T11:00:20.587Z,101504.57
2019-01-14T11:02:49.845Z,101514.16
2019-01-14T11:05:24.674Z,101518.36
2019-01-14T11:07:54.188Z,101523.02
2019-01-14T11:10:23.406Z,101526.14
2019-01-14T11:12:52.763Z,101524.31
2019-01-14T11:15:22.759Z,101517.59
2019-01-14T11:17:52.223Z,101521.22
2019-01-14T11:20:26.757Z,101534.41
2019-01-14T11:22:56.467Z,101522.89
2019-01-14T11:25:25.710Z,101525.98
2019-01-14T11:27:55.467Z,101532.37
2019-01-14T11:30:26.774Z,101532.39
2019-01-14T11:32:56.053Z,101545.01
2019-01-14T11:35:25.402Z,101543.86
2019-01-14T11:37:54.644Z,101549.16
2019-01-14T11:40:26.258Z,101551.87
2019-01-14T11:42:55.431Z,101550.05
2019-01-14T11:45:24.597Z,101566.05
2019-01-14T11:47:53.860Z,101552.69
2019-01-14T11:50:23.943Z,101567.64
2019-01-14T11:52:53.120Z,101574.70
2019-01-14T11:55:22.304Z,101561.38
2019-01-14T11:57:51.484Z,101574.48
2019-01-14T12:00:25.540Z,101564.82
2019-01-14T12:02:54.887Z,101571.06
2019-01-14T12:05:24.111Z,101572.55
2019-01-14T12:07:53.326Z,101579.91
2019-01-14T12:10:22.662Z,101575.09
2019-01-14T12:12:51.813Z,101594.37
2019-01-14T12:15:26.517Z,101624.52
2019-01-14T12:17:55.702Z,101617.46
2019-01-14T12:20:24.854Z,101618.31
2019-01-14T12:22:54.047Z,101607.72
2019-01-14T12:25:23.300Z,101595.25
2019-01-14T12:27:52.471Z,101593.27
2019-01-14T12:30:30.354Z,101592.60
2019-01-14T12:33:00.778Z,101604.88
2019-01-14T12:35:30.139Z,101599.92
2019-01-14T12:37:59.453Z,101601.86
2019-01-14T12:40:28.705Z,101610.59
2019-01-14T12:42:58.761Z,101615.28
2019-01-14T12:45:28.083Z,101608.98
2019-01-14T12:47:57.263Z,101617.70
2019-01-14T12:50:26.625Z,101618.49
2019-01-14T12:52:55.880Z,101621.55
2019-01-14T12:55:25.143Z,101613.89
2019-01-14T12:57:54.346Z,101622.72
2019-01-14T13:00:28.813Z,101627.73
2019-01-14T13:02:58.869Z,101620.84
2019-01-14T13:05:30.795Z,101624.95
2019-01-14T13:07:59.982Z,101624.64
2019-01-14T13:10:29.153Z,101627.37
2019-01-14T13:12:58.401Z,101627.58
2019-01-14T13:15:28.327Z,101622.80
2019-01-14T13:17:57.573Z,101629.09
2019-01-14T13:20:27.747Z,101633.05
2019-01-14T13:22:56.922Z,101639.63
2019-01-14T13:25:26.163Z,101641.67
2019-01-14T13:27:55.464Z,101643.87
2019-01-14T13:30:27.303Z,101649.11
2019-01-14T13:32:56.904Z,101646.02
2019-01-14T13:35:26.226Z,101635.97
2019-01-14T13:37:55.471Z,101648.81
2019-01-14T13:40:24.728Z,101652.42
2019-01-14T13:42:53.932Z,101660.50
2019-01-14T13:45:23.742Z,101657.02
2019-01-14T13:47:52.924Z,101662.38
2019-01-14T13:50:26.576Z,101669.67
2019-01-14T13:52:55.759Z,101669.62
2019-01-14T13:55:25.319Z,101664.00
2019-01-14T13:57:54.557Z,101672.66
2019-01-14T14:00:25.083Z,101675.03
2019-01-14T14:02:54.540Z,101684.50
2019-01-14T14:05:23.707Z,101685.80
2019-01-14T14:07:52.886Z,101691.02
2019-01-14T14:10:28.115Z,101697.56
2019-01-14T14:12:57.458Z,101707.38
2019-01-14T14:15:26.893Z,101706.39
2019-01-14T14:17:56.726Z,101703.52
2019-01-14T14:20:26.032Z,101699.30
2019-01-14T14:22:55.244Z,101701.17
2019-01-14T14:25:24.482Z,101707.34
2019-01-14T14:27:53.745Z,101710.44
2019-01-14T14:30:31.250Z,101708.81
2019-01-14T14:33:00.429Z,101715.98
2019-01-14T14:35:29.608Z,101707.86
2019-01-14T14:38:01.247Z,101718.02
2019-01-14T14:40:29.918Z,101715.68
2019-01-14T14:42:59.328Z,101730.77
2019-01-14T14:45:28.526Z,101734.86
2019-01-14T14:47:57.768Z,101741.91
2019-01-14T14:50:26.953Z,101736.19
2019-01-14T14:52:56.136Z,101742.95
2019-01-14T14:55:25.374Z,101747.86
2019-01-14T14:57:54.554Z,101752.16
2019-01-14T15:00:23.899Z,101759.75
2019-01-14T15:02:53.075Z,101753.50
2019-01-14T15:05:22.246Z,101752.37
2019-01-14T15:07:51.522Z,101758.41
2019-01-14T15:10:21.751Z,101758.00
2019-01-14T15:12:51.294Z,101765.95
2019-01-14T15:15:22.215Z,101768.44
2019-01-14T15:17:51.368Z,101773.06
2019-01-14T15:20:22.472Z,101768.81
2019-01-14T15:22:51.757Z,101773.88
2019-01-14T15:25:20.986Z,101774.28
2019-01-14T15:27:50.164Z,101780.54
2019-01-14T15:30:24.484Z,101789.90
2019-01-14T15:32:53.670Z,101794.66
2019-01-14T15:35:23.138Z,101795.39
2019-01-14T15:37:52.415Z,101802.41
2019-01-14T15:40:23.167Z,101813.95
2019-01-14T15:42:52.475Z,101806.97
2019-01-14T15:45:23.509Z,101812.98
2019-01-14T15:47:52.791Z,101810.39
2019-01-14T15:50:22.035Z,101806.86
2019-01-14T15:52:51.247Z,101818.88
2019-01-14T15:55:22.974Z,101818.48
2019-01-14T15:57:52.212Z,101809.67
2019-01-14T16:00:21.556Z,101808.89
2019-01-14T16:02:50.991Z,101804.06
2019-01-14T16:05:20.249Z,101813.00
2019-01-14T16:07:49.509Z,101809.46
2019-01-14T16:10:21.209Z,101806.33
2019-01-14T16:12:50.361Z,101806.37
2019-01-14T16:15:19.572Z,101808.59
2019-01-14T16:17:48.844Z,101805.97
2019-01-14T16:20:20.360Z,101803.77
2019-01-14T16:22:51.209Z,101804.16
2019-01-14T16:25:20.457Z,101797.91
2019-01-14T16:27:49.707Z,101803.77
2019-01-14T16:30:23.859Z,101802.44
2019-01-14T16:32:53.095Z,101815.25
2019-01-14T16:35:22.303Z,101813.09
2019-01-14T16:37:51.497Z,101816.15
2019-01-14T16:40:20.678Z,101817.94
2019-01-14T16:42:49.849Z,101821.08
2019-01-14T16:45:23.869Z,101825.89
2019-01-14T16:47:53.032Z,101826.29
2019-01-14T16:50:22.441Z,101831.20
2019-01-14T16:52:55.570Z,101831.12
2019-01-14T16:55:29.109Z,101838.59
2019-01-14T16:57:58.274Z,101833.16
2019-01-14T17:00:27.466Z,101837.63
2019-01-14T17:02:56.688Z,101830.70
2019-01-14T17:05:25.852Z,101830.27
2019-01-14T17:07:55.035Z,101837.83
2019-01-14T17:10:25.353Z,101842.68
2019-01-14T17:12:54.691Z,101855.49
2019-01-14T17:15:23.843Z,101849.25
2019-01-14T17:17:53.011Z,101850.63
2019-01-14T17:20:22.199Z,101854.14
2019-01-14T17:22:51.376Z,101858.52
2019-01-14T17:25:21.548Z,101856.80
2019-01-14T17:27:50.739Z,101852.86
2019-01-14T17:30:19.913Z,101860.84
2019-01-14T17:32:49.095Z,101861.28
2019-01-14T17:35:18.273Z,101856.01
2019-01-14T17:37:47.521Z,101862.25
2019-01-14T17:40:19.187Z,101866.27
2019-01-14T17:42:48.344Z,101871.16
2019-01-14T17:45:17.525Z,101876.00
2019-01-14T17:47:48.227Z,101882.21
2019-01-14T17:50:19.420Z,101883.12
2019-01-14T17:52:48.872Z,101882.66
2019-01-14T17:55:18.109Z,101894.52
2019-01-14T17:57:47.377Z,101890.03
2019-01-14T18:00:22.469Z,101899.24
2019-01-14T18:02:51.658Z,101898.28
2019-01-14T18:05:20.853Z,101905.23
2019-01-14T18:07:50.016Z,101904.32
2019-01-14T18:10:20.336Z,101908.67
2019-01-14T18:12:49.533Z,101908.91
2019-01-14T18:15:18.685Z,101909.59
2019-01-14T18:17:47.862Z,101915.00
2019-01-14T18:20:18.585Z,101914.05
2019-01-14T18:22:48.097Z,101922.41
2019-01-14T18:25:17.275Z,101929.83
2019-01-14T18:27:48.022Z,101932.55
2019-01-14T18:30:19.370Z,101934.34
2019-01-14T18:32:48.634Z,101934.75
2019-01-14T18:35:17.854Z,101944.91
2019-01-14T18:37:47.197Z,101947.76
2019-01-14T18:40:18.807Z,101954.99
2019-01-14T18:42:48.150Z,101944.46
2019-01-14T18:45:18.443Z,101934.39
2019-01-14T18:47:47.671Z,101938.87
2019-01-14T18:50:19.343Z,101936.70
2019-01-14T18:52:48.506Z,101937.17
2019-01-14T18:55:18.673Z,101936.78
2019-01-14T18:57:48.009Z,101941.20
2019-01-14T19:00:19.695Z,101938.16
2019-01-14T19:02:48.954Z,101940.81
2019-01-14T19:05:18.195Z,101942.95
2019-01-14T19:07:47.581Z,101935.83
2019-01-14T19:10:16.894Z,101936.66
2019-01-14T19:12:46.100Z,101936.21
2019-01-14T19:15:17.443Z,101934.95
2019-01-14T19:17:46.762Z,101938.95
2019-01-14T19:20:26.263Z,101938.00
2019-01-14T19:22:55.431Z,101946.28
2019-01-14T19:25:24.599Z,101949.70
2019-01-14T19:27:53.818Z,101945.71
2019-01-14T19:30:23.344Z,101944.46
2019-01-14T19:32:52.531Z,101947.14
2019-01-14T19:35:21.821Z,101948.54
2019-01-14T19:37:50.996Z,101944.16
2019-01-14T19:40:21.366Z,101945.50
2019-01-14T19:42:50.741Z,101948.17
2019-01-14T19:45:20.538Z,101945.50
2019-01-14T19:47:49.805Z,101946.83
2019-01-14T19:50:21.120Z,101945.91
2019-01-14T19:52:50.287Z,101952.05
2019-01-14T19:55:20.469Z,101957.34
2019-01-14T19:57:50.880Z,101953.27
2019-01-14T20:00:23.005Z,101951.89
2019-01-14T20:02:52.281Z,101958.51
2019-01-14T20:05:21.802Z,101956.31
2019-01-14T20:07:51.425Z,101950.56
2019-01-14T20:10:21.442Z,101949.75
2019-01-14T20:12:50.710Z,101960.40
2019-01-14T20:15:21.511Z,101956.03
2019-01-14T20:17:50.717Z,101951.20
2019-01-14T20:20:20.021Z,101959.63
2019-01-14T20:22:49.154Z,101961.83
2019-01-14T20:25:18.398Z,101960.96
2019-01-14T20:27:47.628Z,101956.14
2019-01-14T20:30:19.462Z,101955.28
2019-01-14T20:32:48.663Z,101960.17
2019-01-14T20:35:19.606Z,101957.95
2019-01-14T20:37:48.846Z,101961.51
2019-01-14T20:40:18.197Z,101963.71
2019-01-14T20:42:47.371Z,101962.39
2019-01-14T20:45:17.484Z,101965.02
2019-01-14T20:47:47.569Z,101968.13
2019-01-14T20:50:19.761Z,101970.34
2019-01-14T20:52:48.932Z,101965.05
2019-01-14T20:55:18.134Z,101965.53
2019-01-14T20:57:47.355Z,101964.66
2019-01-14T21:00:20.698Z,101963.32
2019-01-14T21:02:50.067Z,101975.73
2019-01-14T21:05:19.515Z,101974.42
2019-01-14T21:07:48.679Z,101976.66
2019-01-14T21:10:18.131Z,101974.02
2019-01-14T21:12:47.354Z,101975.36
2019-01-14T21:15:16.612Z,101976.74
2019-01-14T21:17:45.817Z,101973.22
2019-01-14T21:20:23.376Z,101977.12
2019-01-14T21:22:52.943Z,101978.02
2019-01-14T21:25:22.175Z,101984.69
2019-01-14T21:27:51.437Z,101979.86
2019-01-14T21:30:22.882Z,101979.86
2019-01-14T21:32:52.127Z,101985.56
2019-01-14T21:35:21.290Z,101980.20
2019-01-14T21:37:51.222Z,101982.37
2019-01-14T21:40:20.368Z,101981.03
2019-01-14T21:42:49.539Z,101987.21
2019-01-14T21:45:18.771Z,101979.26
2019-01-14T21:47:48.083Z,101979.31
2019-01-14T21:50:19.204Z,101971.82
2019-01-14T21:52:48.605Z,101974.94
2019-01-14T21:55:20.130Z,101979.79
2019-01-14T21:57:49.280Z,101974.89
2019-01-14T22:00:21.324Z,101975.74
2019-01-14T22:02:50.493Z,101971.76
2019-01-14T22:05:20.227Z,101977.98
2019-01-14T22:07:49.492Z,101972.22
2019-01-14T22:10:23.603Z,101981.05
2019-01-14T22:12:52.820Z,101972.20
2019-01-14T22:15:22.178Z,101966.83
2019-01-14T22:17:54.345Z,101969.00
2019-01-14T22:20:25.545Z,101973.36
2019-01-14T22:22:54.806Z,101977.68
2019-01-14T22:25:23.972Z,101979.40
2019-01-14T22:27:53.153Z,101984.66
2019-01-14T22:30:30.616Z,101984.61
2019-01-14T22:32:59.819Z,101983.20
2019-01-14T22:35:29.078Z,101981.77
2019-01-14T22:37:59.263Z,101983.52
2019-01-14T22:40:29.441Z,101984.37
2019-01-14T22:42:58.623Z,101981.23
2019-01-14T22:45:27.926Z,101978.50
2019-01-14T22:47:57.120Z,101974.05
2019-01-14T22:50:26.433Z,101971.08
2019-01-14T22:52:55.618Z,101971.59
2019-01-14T22:55:24.855Z,101978.70
2019-01-14T22:57:54.055Z,101967.22
2019-01-14T23:00:27.780Z,101968.10
2019-01-14T23:02:57.026Z,101964.18
2019-01-14T23:05:26.269Z,101965.53
2019-01-14T23:07:55.459Z,101962.94
2019-01-14T23:10:25.562Z,101943.59
2019-01-14T23:12:54.730Z,101956.39
2019-01-14T23:15:23.925Z,101956.41
2019-01-14T23:17:53.123Z,101953.35
2019-01-14T23:20:22.286Z,101950.22
2019-01-14T23:22:51.479Z,101949.30
2019-01-14T23:25:20.639Z,101951.47
2019-01-14T23:27:49.804Z,101952.41
2019-01-14T23:30:19.096Z,101949.75
2019-01-14T23:32:48.265Z,101955.08
2019-01-14T23:35:17.442Z,101953.17
2019-01-14T23:37:46.647Z,101951.38
2019-01-14T23:40:15.831Z,101952.70
2019-01-14T23:42:45.007Z,101955.37
2019-01-14T23:45:14.285Z,101946.55
2019-01-14T23:47:43.587Z,101941.69
2019-01-14T23:50:12.909Z,101939.93
2019-01-14T23:52:42.114Z,101945.71
2019-01-14T23:55:11.363Z,101944.00
2019-01-14T23:57:40.530Z,101940.00
